sensor_id;sensor_type;location;lat;lon;timestamp;temperature;humidity
18268;DHT22;9260;49.998;19.880;2022-08-01T00:03:06;14.30;99.90
18268;DHT22;9260;49.998;19.880;2022-08-01T00:13:09;14.30;99.90
18268;DHT22;9260;49.998;19.880;2022-08-01T00:23:14;14.10;99.90
18268;DHT22;9260;49.998;19.880;2022-08-01T00:33:17;14.00;99.90
18268;DHT22;9260;49.998;19.880;2022-08-01T00:43:22;13.80;99.90
18268;DHT22;9260;49.998;19.880;2022-08-01T00:53:26;13.70;99.90
18268;DHT22;9260;49.998;19.880;2022-08-01T01:03:52;13.50;99.90
18268;DHT22;9260;49.998;19.880;2022-08-01T01:14:04;13.30;99.90
18268;DHT22;9260;49.998;19.880;2022-08-01T01:24:25;13.20;99.90
18268;DHT22;9260;49.998;19.880;2022-08-01T01:34:37;13.20;99.90
18268;DHT22;9260;49.998;19.880;2022-08-01T01:44:43;13.30;99.90
18268;DHT22;9260;49.998;19.880;2022-08-01T01:54:50;13.30;99.90
18268;DHT22;9260;49.998;19.880;2022-08-01T02:04:55;13.30;99.90
18268;DHT22;9260;49.998;19.880;2022-08-01T02:15:02;13.20;99.90
18268;DHT22;9260;49.998;19.880;2022-08-01T02:25:11;13.10;99.90
18268;DHT22;9260;49.998;19.880;2022-08-01T02:35:25;12.90;99.90
18268;DHT22;9260;49.998;19.880;2022-08-01T02:45:31;12.50;99.90
18268;DHT22;9260;49.998;19.880;2022-08-01T02:55:38;12.20;99.90
18268;DHT22;9260;49.998;19.880;2022-08-01T03:05:43;11.90;99.90
18268;DHT22;9260;49.998;19.880;2022-08-01T03:15:48;11.70;99.90
18268;DHT22;9260;49.998;19.880;2022-08-01T03:25:52;11.50;99.90
18268;DHT22;9260;49.998;19.880;2022-08-01T03:36:00;11.50;99.90
18268;DHT22;9260;49.998;19.880;2022-08-01T03:46:07;11.40;99.90
18268;DHT22;9260;49.998;19.880;2022-08-01T03:56:17;11.40;99.90
18268;DHT22;9260;49.998;19.880;2022-08-01T04:06:22;11.60;99.90
18268;DHT22;9260;49.998;19.880;2022-08-01T04:16:26;11.70;99.90
18268;DHT22;9260;49.998;19.880;2022-08-01T04:26:31;11.80;99.90
18268;DHT22;9260;49.998;19.880;2022-08-01T04:36:37;12.00;99.90
18268;DHT22;9260;49.998;19.880;2022-08-01T04:46:43;12.20;99.90
18268;DHT22;9260;49.998;19.880;2022-08-01T04:56:51;12.30;99.90
18268;DHT22;9260;49.998;19.880;2022-08-01T05:06:57;12.40;99.90
18268;DHT22;9260;49.998;19.880;2022-08-01T05:17:04;12.60;99.90
18268;DHT22;9260;49.998;19.880;2022-08-01T05:27:09;13.50;99.90
18268;DHT22;9260;49.998;19.880;2022-08-01T05:37:18;13.70;99.90
18268;DHT22;9260;49.998;19.880;2022-08-01T05:47:21;13.80;99.90
18268;DHT22;9260;49.998;19.880;2022-08-01T05:57:26;14.20;99.90
18268;DHT22;9260;49.998;19.880;2022-08-01T06:07:30;15.50;99.90
18268;DHT22;9260;49.998;19.880;2022-08-01T06:17:35;16.20;99.90
18268;DHT22;9260;49.998;19.880;2022-08-01T06:27:38;16.50;99.90
18268;DHT22;9260;49.998;19.880;2022-08-01T06:37:43;16.90;99.90
18268;DHT22;9260;49.998;19.880;2022-08-01T06:47:48;17.50;99.90
18268;DHT22;9260;49.998;19.880;2022-08-01T06:57:53;18.10;99.90
18268;DHT22;9260;49.998;19.880;2022-08-01T07:07:56;18.50;99.90
18268;DHT22;9260;49.998;19.880;2022-08-01T07:18:02;19.00;99.90
18268;DHT22;9260;49.998;19.880;2022-08-01T07:28:06;20.20;99.90
18268;DHT22;9260;49.998;19.880;2022-08-01T07:38:10;22.70;99.90
18268;DHT22;9260;49.998;19.880;2022-08-01T07:48:14;25.50;99.90
18268;DHT22;9260;49.998;19.880;2022-08-01T07:58:19;28.40;99.90
18268;DHT22;9260;49.998;19.880;2022-08-01T08:08:22;31.20;99.90
18268;DHT22;9260;49.998;19.880;2022-08-01T08:18:27;32.80;99.90
18268;DHT22;9260;49.998;19.880;2022-08-01T08:28:31;34.80;99.90
18268;DHT22;9260;49.998;19.880;2022-08-01T08:38:35;36.80;99.90
18268;DHT22;9260;49.998;19.880;2022-08-01T08:48:41;38.60;99.90
18268;DHT22;9260;49.998;19.880;2022-08-01T08:58:46;39.80;99.90
18268;DHT22;9260;49.998;19.880;2022-08-01T09:08:50;41.50;99.90
18268;DHT22;9260;49.998;19.880;2022-08-01T09:19:07;43.00;99.90
18268;DHT22;9260;49.998;19.880;2022-08-01T09:29:19;43.00;99.90
18268;DHT22;9260;49.998;19.880;2022-08-01T09:39:40;43.60;99.90
18268;DHT22;9260;49.998;19.880;2022-08-01T09:49:45;45.10;1.00
18268;DHT22;9260;49.998;19.880;2022-08-01T09:59:55;46.70;1.00
18268;DHT22;9260;49.998;19.880;2022-08-01T10:10:09;46.40;1.00
18268;DHT22;9260;49.998;19.880;2022-08-01T10:20:17;45.00;1.00
18268;DHT22;9260;49.998;19.880;2022-08-01T10:30:31;43.20;1.00
18268;DHT22;9260;49.998;19.880;2022-08-01T10:40:37;42.30;1.00
18268;DHT22;9260;49.998;19.880;2022-08-01T10:50:43;39.50;99.90
18268;DHT22;9260;49.998;19.880;2022-08-01T11:12:00;39.80;99.90
18268;DHT22;9260;49.998;19.880;2022-08-01T11:22:08;41.60;1.00
18268;DHT22;9260;49.998;19.880;2022-08-01T11:32:27;40.80;1.00
18268;DHT22;9260;49.998;19.880;2022-08-01T11:42:44;41.00;1.00
18268;DHT22;9260;49.998;19.880;2022-08-01T11:52:57;40.60;1.00
18268;DHT22;9260;49.998;19.880;2022-08-01T12:03:05;36.60;99.90
18268;DHT22;9260;49.998;19.880;2022-08-01T12:13:09;33.40;99.90
18268;DHT22;9260;49.998;19.880;2022-08-01T12:23:16;32.00;99.90
18268;DHT22;9260;49.998;19.880;2022-08-01T12:33:20;30.70;99.90
18268;DHT22;9260;49.998;19.880;2022-08-01T12:43:25;29.90;99.90
18268;DHT22;9260;49.998;19.880;2022-08-01T12:53:33;30.00;99.90
18268;DHT22;9260;49.998;19.880;2022-08-01T13:03:57;30.10;99.90
18268;DHT22;9260;49.998;19.880;2022-08-01T13:14:01;29.10;99.90
18268;DHT22;9260;49.998;19.880;2022-08-01T13:24:09;28.10;99.90
18268;DHT22;9260;49.998;19.880;2022-08-01T13:34:14;27.50;99.90
18268;DHT22;9260;49.998;19.880;2022-08-01T13:44:19;27.50;99.90
18268;DHT22;9260;49.998;19.880;2022-08-01T13:54:23;27.70;99.90
18268;DHT22;9260;49.998;19.880;2022-08-01T14:04:27;28.40;99.90
18268;DHT22;9260;49.998;19.880;2022-08-01T14:14:31;29.00;99.90
18268;DHT22;9260;49.998;19.880;2022-08-01T14:24:36;28.90;99.90
18268;DHT22;9260;49.998;19.880;2022-08-01T14:34:41;28.70;99.90
18268;DHT22;9260;49.998;19.880;2022-08-01T14:44:46;29.70;99.90
18268;DHT22;9260;49.998;19.880;2022-08-01T14:54:50;29.90;99.90
18268;DHT22;9260;49.998;19.880;2022-08-01T15:04:55;29.40;99.90
18268;DHT22;9260;49.998;19.880;2022-08-01T15:14:59;28.90;99.90
18268;DHT22;9260;49.998;19.880;2022-08-01T15:25:04;28.40;99.90
18268;DHT22;9260;49.998;19.880;2022-08-01T15:35:08;28.20;99.90
18268;DHT22;9260;49.998;19.880;2022-08-01T15:45:14;28.20;99.90
18268;DHT22;9260;49.998;19.880;2022-08-01T15:55:41;28.00;99.90
18268;DHT22;9260;49.998;19.880;2022-08-01T16:05:55;27.40;99.90
18268;DHT22;9260;49.998;19.880;2022-08-01T16:15:58;26.80;99.90
18268;DHT22;9260;49.998;19.880;2022-08-01T16:26:06;26.40;99.90
18268;DHT22;9260;49.998;19.880;2022-08-01T16:36:28;25.90;99.90
18268;DHT22;9260;49.998;19.880;2022-08-01T16:46:33;25.30;99.90
18268;DHT22;9260;49.998;19.880;2022-08-01T16:56:37;24.90;99.90
18268;DHT22;9260;49.998;19.880;2022-08-01T17:06:41;24.10;99.90
18268;DHT22;9260;49.998;19.880;2022-08-01T17:16:46;23.00;99.90
18268;DHT22;9260;49.998;19.880;2022-08-01T17:26:51;21.70;99.90
18268;DHT22;9260;49.998;19.880;2022-08-01T17:36:54;20.80;99.90
18268;DHT22;9260;49.998;19.880;2022-08-01T17:46:59;20.40;99.90
18268;DHT22;9260;49.998;19.880;2022-08-01T17:57:02;19.80;99.90
18268;DHT22;9260;49.998;19.880;2022-08-01T18:07:10;19.50;99.90
18268;DHT22;9260;49.998;19.880;2022-08-01T18:17:14;19.30;99.90
18268;DHT22;9260;49.998;19.880;2022-08-01T18:27:19;19.00;99.90
18268;DHT22;9260;49.998;19.880;2022-08-01T18:37:22;18.60;99.90
18268;DHT22;9260;49.998;19.880;2022-08-01T18:47:34;18.40;99.90
18268;DHT22;9260;49.998;19.880;2022-08-01T18:57:38;18.20;99.90
18268;DHT22;9260;49.998;19.880;2022-08-01T19:07:45;17.90;99.90
18268;DHT22;9260;49.998;19.880;2022-08-01T19:18:07;17.70;99.90
18268;DHT22;9260;49.998;19.880;2022-08-01T19:28:14;17.60;99.90
18268;DHT22;9260;49.998;19.880;2022-08-01T19:38:18;17.50;99.90
18268;DHT22;9260;49.998;19.880;2022-08-01T19:48:24;17.40;99.90
18268;DHT22;9260;49.998;19.880;2022-08-01T19:58:27;17.30;99.90
18268;DHT22;9260;49.998;19.880;2022-08-01T20:08:33;17.30;99.90
18268;DHT22;9260;49.998;19.880;2022-08-01T20:18:38;17.30;99.90
18268;DHT22;9260;49.998;19.880;2022-08-01T20:28:45;17.20;99.90
18268;DHT22;9260;49.998;19.880;2022-08-01T20:38:51;17.20;99.90
18268;DHT22;9260;49.998;19.880;2022-08-01T20:48:58;17.00;99.90
18268;DHT22;9260;49.998;19.880;2022-08-01T20:59:08;16.70;99.90
18268;DHT22;9260;49.998;19.880;2022-08-01T21:09:36;16.50;99.90
18268;DHT22;9260;49.998;19.880;2022-08-01T21:19:42;16.20;99.90
18268;DHT22;9260;49.998;19.880;2022-08-01T21:29:50;16.00;99.90
18268;DHT22;9260;49.998;19.880;2022-08-01T21:39:55;15.90;99.90
18268;DHT22;9260;49.998;19.880;2022-08-01T22:00:54;15.70;99.90
18268;DHT22;9260;49.998;19.880;2022-08-01T22:11:06;15.60;99.90
18268;DHT22;9260;49.998;19.880;2022-08-01T22:21:10;15.40;99.90
18268;DHT22;9260;49.998;19.880;2022-08-01T22:31:16;15.40;99.90
18268;DHT22;9260;49.998;19.880;2022-08-01T22:41:24;15.30;99.90
18268;DHT22;9260;49.998;19.880;2022-08-01T22:51:57;15.40;99.90
18268;DHT22;9260;49.998;19.880;2022-08-01T23:02:07;15.40;99.90
18268;DHT22;9260;49.998;19.880;2022-08-01T23:12:14;15.40;99.90
18268;DHT22;9260;49.998;19.880;2022-08-01T23:22:20;15.20;99.90
18268;DHT22;9260;49.998;19.880;2022-08-01T23:32:25;15.00;99.90
18268;DHT22;9260;49.998;19.880;2022-08-01T23:42:29;14.90;99.90
18268;DHT22;9260;49.998;19.880;2022-08-01T23:52:34;14.70;99.90
